Terminal Aerodrome Forecast
Issued by NWS

Home | Current Version | Previous Version | Text Only | Print | Product List | Glossary Off
Versions: 1 2 3 4 5 6 7 8 9 10 11 12 13 14 15 16 17 18 19 20 21 22 23 24 25 26 27 28 29 30 31 32 33 34 35 36 37

000
FTUS43 KLOT 222200 AAC
TAFMDW
TAF AMD
KMDW 222204Z 2222/2318 23013G20KT P6SM SCT035
      TEMPO 2222/2301 BKN035
     FM230100 24012G19KT P6SM VCTS BKN050CB
     FM230500 34010KT P6SM BKN040
     FM230700 03012G18KT P6SM FEW010 BKN030
     FM231400 02014G20KT P6SM BKN200=

USA.gov is the U.S. government's official web portal to all federal, state and local government web resources and services.